sensor_id;sensor_type;location;lat;lon;timestamp;pressure;altitude;pressure_sealevel;temperature;humidity
29879;BME280;16752;53.364;-1.488;2023-07-22T00:00:53;100054.38;;;22.21;48.21
29879;BME280;16752;53.364;-1.488;2023-07-22T00:03:37;99905.09;;;21.46;48.16
29879;BME280;16752;53.364;-1.488;2023-07-22T00:06:21;99918.00;;;21.57;47.86
29879;BME280;16752;53.364;-1.488;2023-07-22T00:09:06;100047.84;;;22.38;47.81
29879;BME280;16752;53.364;-1.488;2023-07-22T00:11:50;99954.69;;;21.70;48.08
29879;BME280;16752;53.364;-1.488;2023-07-22T00:14:38;100038.19;;;22.37;47.97
29879;BME280;16752;53.364;-1.488;2023-07-22T00:17:23;99973.56;;;21.98;47.42
29879;BME280;16752;53.364;-1.488;2023-07-22T00:20:27;100031.50;;;22.04;47.49
29879;BME280;16752;53.364;-1.488;2023-07-22T00:23:13;99973.00;;;21.87;47.86
29879;BME280;16752;53.364;-1.488;2023-07-22T00:26:00;99956.28;;;21.93;47.42
29879;BME280;16752;53.364;-1.488;2023-07-22T00:28:44;99957.56;;;21.98;47.68
29879;BME280;16752;53.364;-1.488;2023-07-22T00:31:41;99966.50;;;22.05;47.81
29879;BME280;16752;53.364;-1.488;2023-07-22T00:34:47;100020.31;;;22.38;47.82
29879;BME280;16752;53.364;-1.488;2023-07-22T00:41:13;100025.09;;;22.42;47.71
29879;BME280;16752;53.364;-1.488;2023-07-22T00:44:27;100006.25;;;22.14;47.46
29879;BME280;16752;53.364;-1.488;2023-07-22T00:48:16;100018.66;;;22.22;48.05
29879;BME280;16752;53.364;-1.488;2023-07-22T00:51:54;100007.34;;;22.20;48.21
29879;BME280;16752;53.364;-1.488;2023-07-22T00:58:20;100003.19;;;22.32;47.86
29879;BME280;16752;53.364;-1.488;2023-07-22T01:01:05;99909.00;;;21.58;48.34
29879;BME280;16752;53.364;-1.488;2023-07-22T01:03:49;99974.19;;;21.85;48.22
29879;BME280;16752;53.364;-1.488;2023-07-22T01:06:34;99934.75;;;21.80;48.03
29879;BME280;16752;53.364;-1.488;2023-07-22T01:09:18;99933.66;;;21.75;48.40
29879;BME280;16752;53.364;-1.488;2023-07-22T01:12:02;99964.16;;;21.87;47.84
29879;BME280;16752;53.364;-1.488;2023-07-22T01:14:47;99875.78;;;21.46;48.02
29879;BME280;16752;53.364;-1.488;2023-07-22T01:17:31;99869.38;;;21.40;47.97
29879;BME280;16752;53.364;-1.488;2023-07-22T01:20:15;99845.69;;;21.22;48.18
29879;BME280;16752;53.364;-1.488;2023-07-22T01:22:59;99853.38;;;21.40;47.88
29879;BME280;16752;53.364;-1.488;2023-07-22T01:25:45;99898.34;;;21.73;47.84
29879;BME280;16752;53.364;-1.488;2023-07-22T01:28:30;99925.53;;;21.68;48.01
29879;BME280;16752;53.364;-1.488;2023-07-22T01:31:14;99860.81;;;21.45;47.82
29879;BME280;16752;53.364;-1.488;2023-07-22T01:34:01;99890.59;;;21.63;47.98
29879;BME280;16752;53.364;-1.488;2023-07-22T01:37:04;99798.28;;;21.03;47.77
29879;BME280;16752;53.364;-1.488;2023-07-22T01:39:51;99841.25;;;21.38;48.05
29879;BME280;16752;53.364;-1.488;2023-07-22T01:42:36;99893.19;;;21.71;47.58
29879;BME280;16752;53.364;-1.488;2023-07-22T01:45:37;99882.97;;;21.45;48.38
29879;BME280;16752;53.364;-1.488;2023-07-22T01:52:08;99838.38;;;21.24;48.19
29879;BME280;16752;53.364;-1.488;2023-07-22T01:54:58;99915.53;;;21.70;48.88
29879;BME280;16752;53.364;-1.488;2023-07-22T01:57:43;99857.19;;;21.23;48.79
29879;BME280;16752;53.364;-1.488;2023-07-22T02:08:21;99897.13;;;21.31;49.24
29879;BME280;16752;53.364;-1.488;2023-07-22T02:19:08;99850.88;;;21.68;47.60
29879;BME280;16752;53.364;-1.488;2023-07-22T02:22:29;99726.28;;;20.96;47.96
29879;BME280;16752;53.364;-1.488;2023-07-22T02:28:46;99790.53;;;21.31;47.97
29879;BME280;16752;53.364;-1.488;2023-07-22T02:31:33;99813.56;;;21.09;49.17
29879;BME280;16752;53.364;-1.488;2023-07-22T02:34:24;99787.06;;;20.93;49.37
29879;BME280;16752;53.364;-1.488;2023-07-22T02:37:15;99721.69;;;20.15;49.45
29879;BME280;16752;53.364;-1.488;2023-07-22T02:43:32;99855.50;;;21.59;48.60
29879;BME280;16752;53.364;-1.488;2023-07-22T02:46:19;99727.22;;;20.89;48.46
29879;BME280;16752;53.364;-1.488;2023-07-22T02:49:20;99716.94;;;20.86;47.92
29879;BME280;16752;53.364;-1.488;2023-07-22T02:52:10;99801.28;;;21.38;48.36
29879;BME280;16752;53.364;-1.488;2023-07-22T02:55:15;99790.34;;;20.80;49.76
29879;BME280;16752;53.364;-1.488;2023-07-22T03:01:37;99755.56;;;20.82;48.82
29879;BME280;16752;53.364;-1.488;2023-07-22T03:04:21;99707.00;;;20.04;49.89
29879;BME280;16752;53.364;-1.488;2023-07-22T03:10:43;99692.34;;;20.84;48.16
29879;BME280;16752;53.364;-1.488;2023-07-22T03:14:01;99682.94;;;20.21;49.18
29879;BME280;16752;53.364;-1.488;2023-07-22T03:30:11;99766.09;;;21.27;48.68
29879;BME280;16752;53.364;-1.488;2023-07-22T03:32:59;99816.00;;;21.48;49.34
29879;BME280;16752;53.364;-1.488;2023-07-22T03:35:44;99758.78;;;20.92;50.26
29879;BME280;16752;53.364;-1.488;2023-07-22T03:38:28;99683.31;;;20.70;49.73
29879;BME280;16752;53.364;-1.488;2023-07-22T03:41:12;99777.78;;;21.26;49.47
29879;BME280;16752;53.364;-1.488;2023-07-22T03:43:56;99721.34;;;21.08;48.99
29879;BME280;16752;53.364;-1.488;2023-07-22T03:47:10;99729.44;;;20.02;51.97
29879;BME280;16752;53.364;-1.488;2023-07-22T03:49:54;99753.06;;;20.80;50.54
29879;BME280;16752;53.364;-1.488;2023-07-22T03:52:42;99743.31;;;20.35;51.85
29879;BME280;16752;53.364;-1.488;2023-07-22T03:55:32;99715.69;;;20.36;51.43
29879;BME280;16752;53.364;-1.488;2023-07-22T04:02:48;99791.47;;;21.00;50.78
29879;BME280;16752;53.364;-1.488;2023-07-22T04:05:33;99720.81;;;20.46;50.96
29879;BME280;16752;53.364;-1.488;2023-07-22T04:08:17;99728.34;;;20.34;51.25
29879;BME280;16752;53.364;-1.488;2023-07-22T04:11:04;99636.88;;;20.43;49.75
29879;BME280;16752;53.364;-1.488;2023-07-22T04:14:06;99687.06;;;20.75;49.50
29879;BME280;16752;53.364;-1.488;2023-07-22T04:16:50;99697.94;;;20.89;49.48
29879;BME280;16752;53.364;-1.488;2023-07-22T04:19:34;99761.38;;;21.00;50.12
29879;BME280;16752;53.364;-1.488;2023-07-22T04:22:20;99677.16;;;20.99;49.05
29879;BME280;16752;53.364;-1.488;2023-07-22T04:25:05;99724.16;;;20.17;51.74
29879;BME280;16752;53.364;-1.488;2023-07-22T04:27:52;99692.47;;;20.30;51.81
29879;BME280;16752;53.364;-1.488;2023-07-22T04:30:55;99655.09;;;20.08;51.30
29879;BME280;16752;53.364;-1.488;2023-07-22T04:33:39;99585.50;;;20.05;50.69
29879;BME280;16752;53.364;-1.488;2023-07-22T04:36:25;99653.22;;;20.32;50.26
29879;BME280;16752;53.364;-1.488;2023-07-22T04:39:09;99629.63;;;20.14;50.86
29879;BME280;16752;53.364;-1.488;2023-07-22T04:41:53;99730.81;;;21.25;49.98
29879;BME280;16752;53.364;-1.488;2023-07-22T04:44:43;99638.22;;;20.01;50.90
29879;BME280;16752;53.364;-1.488;2023-07-22T04:47:30;99664.31;;;20.43;50.93
29879;BME280;16752;53.364;-1.488;2023-07-22T04:50:14;99577.13;;;19.56;51.58
29879;BME280;16752;53.364;-1.488;2023-07-22T04:52:59;99702.38;;;20.44;51.66
29879;BME280;16752;53.364;-1.488;2023-07-22T04:55:43;99667.81;;;20.36;50.84
29879;BME280;16752;53.364;-1.488;2023-07-22T04:58:30;99688.88;;;20.60;50.40
29879;BME280;16752;53.364;-1.488;2023-07-22T05:01:15;99730.72;;;21.33;49.57
29879;BME280;16752;53.364;-1.488;2023-07-22T05:03:58;99666.69;;;20.53;50.28
29879;BME280;16752;53.364;-1.488;2023-07-22T05:06:43;99546.81;;;20.02;49.90
29879;BME280;16752;53.364;-1.488;2023-07-22T05:09:26;99708.47;;;20.97;50.10
29879;BME280;16752;53.364;-1.488;2023-07-22T05:12:11;99711.25;;;20.89;50.95
29879;BME280;16752;53.364;-1.488;2023-07-22T05:14:55;99604.72;;;20.30;50.41
29879;BME280;16752;53.364;-1.488;2023-07-22T05:17:39;99691.50;;;21.27;49.30
29879;BME280;16752;53.364;-1.488;2023-07-22T05:20:24;99551.63;;;19.84;50.83
29879;BME280;16752;53.364;-1.488;2023-07-22T05:23:08;99668.09;;;20.93;50.47
29879;BME280;16752;53.364;-1.488;2023-07-22T05:25:53;99712.06;;;21.33;49.55
29879;BME280;16752;53.364;-1.488;2023-07-22T05:28:37;99708.72;;;21.46;49.57
29879;BME280;16752;53.364;-1.488;2023-07-22T05:31:21;99693.97;;;21.14;50.38
29879;BME280;16752;53.364;-1.488;2023-07-22T05:34:05;99658.16;;;20.72;50.56
29879;BME280;16752;53.364;-1.488;2023-07-22T05:36:49;99677.19;;;21.28;50.04
29879;BME280;16752;53.364;-1.488;2023-07-22T05:39:33;99598.94;;;20.26;51.24
29879;BME280;16752;53.364;-1.488;2023-07-22T05:42:17;99674.59;;;20.61;51.23
29879;BME280;16752;53.364;-1.488;2023-07-22T05:45:02;99636.63;;;20.30;51.51
29879;BME280;16752;53.364;-1.488;2023-07-22T05:47:47;99665.50;;;21.00;50.82
29879;BME280;16752;53.364;-1.488;2023-07-22T05:50:31;99620.94;;;20.35;51.26
29879;BME280;16752;53.364;-1.488;2023-07-22T05:53:15;99591.91;;;20.48;50.81
29879;BME280;16752;53.364;-1.488;2023-07-22T05:55:59;99666.72;;;21.27;50.07
29879;BME280;16752;53.364;-1.488;2023-07-22T05:58:43;99641.94;;;20.82;50.82
29879;BME280;16752;53.364;-1.488;2023-07-22T06:01:27;99664.91;;;21.49;50.04
29879;BME280;16752;53.364;-1.488;2023-07-22T06:04:11;99558.28;;;20.77;50.22
29879;BME280;16752;53.364;-1.488;2023-07-22T06:06:55;99564.66;;;20.61;50.25
29879;BME280;16752;53.364;-1.488;2023-07-22T06:09:42;99541.97;;;20.21;51.36
29879;BME280;16752;53.364;-1.488;2023-07-22T06:12:26;99669.19;;;21.28;50.60
29879;BME280;16752;53.364;-1.488;2023-07-22T06:15:10;99545.66;;;20.49;50.67
29879;BME280;16752;53.364;-1.488;2023-07-22T06:17:54;99601.06;;;20.75;50.87
29879;BME280;16752;53.364;-1.488;2023-07-22T06:20:41;99546.03;;;20.61;50.49
29879;BME280;16752;53.364;-1.488;2023-07-22T06:23:25;99513.66;;;20.42;50.63
29879;BME280;16752;53.364;-1.488;2023-07-22T06:26:14;99547.13;;;20.66;51.41
29879;BME280;16752;53.364;-1.488;2023-07-22T06:28:58;99570.19;;;21.10;50.66
29879;BME280;16752;53.364;-1.488;2023-07-22T06:31:42;99556.38;;;20.85;50.81
29879;BME280;16752;53.364;-1.488;2023-07-22T06:34:26;99589.81;;;21.24;51.00
29879;BME280;16752;53.364;-1.488;2023-07-22T06:37:10;99571.63;;;21.27;50.10
29879;BME280;16752;53.364;-1.488;2023-07-22T06:39:54;99576.44;;;21.81;49.55
29879;BME280;16752;53.364;-1.488;2023-07-22T06:42:38;99629.91;;;21.73;50.58
29879;BME280;16752;53.364;-1.488;2023-07-22T06:45:22;99578.91;;;21.04;51.11
29879;BME280;16752;53.364;-1.488;2023-07-22T06:48:06;99588.47;;;21.99;49.13
29879;BME280;16752;53.364;-1.488;2023-07-22T06:50:50;99549.66;;;21.68;49.09
29879;BME280;16752;53.364;-1.488;2023-07-22T06:53:34;99556.59;;;21.90;49.02
29879;BME280;16752;53.364;-1.488;2023-07-22T06:56:18;99615.34;;;22.18;49.45
29879;BME280;16752;53.364;-1.488;2023-07-22T06:59:11;99501.63;;;20.47;51.07
29879;BME280;16752;53.364;-1.488;2023-07-22T07:01:55;99547.69;;;20.98;50.85
29879;BME280;16752;53.364;-1.488;2023-07-22T07:04:39;99529.81;;;20.92;51.21
29879;BME280;16752;53.364;-1.488;2023-07-22T07:07:22;99559.22;;;20.84;51.71
29879;BME280;16752;53.364;-1.488;2023-07-22T07:10:07;99605.50;;;21.98;50.31
29879;BME280;16752;53.364;-1.488;2023-07-22T07:12:51;99549.78;;;21.02;51.13
29879;BME280;16752;53.364;-1.488;2023-07-22T07:15:35;99549.56;;;21.33;50.60
29879;BME280;16752;53.364;-1.488;2023-07-22T07:18:28;99534.03;;;21.65;49.66
29879;BME280;16752;53.364;-1.488;2023-07-22T07:21:12;99521.25;;;21.32;50.47
29879;BME280;16752;53.364;-1.488;2023-07-22T07:24:00;99559.53;;;21.10;51.11
29879;BME280;16752;53.364;-1.488;2023-07-22T07:26:44;99518.28;;;20.85;50.94
29879;BME280;16752;53.364;-1.488;2023-07-22T07:29:28;99586.75;;;20.91;52.23
29879;BME280;16752;53.364;-1.488;2023-07-22T07:32:12;99579.84;;;20.82;52.68
29879;BME280;16752;53.364;-1.488;2023-07-22T07:34:56;99556.84;;;20.74;52.07
29879;BME280;16752;53.364;-1.488;2023-07-22T07:37:41;99475.13;;;20.09;53.40
29879;BME280;16752;53.364;-1.488;2023-07-22T07:40:25;99567.00;;;21.21;51.45
29879;BME280;16752;53.364;-1.488;2023-07-22T07:43:12;99521.16;;;21.04;51.46
29879;BME280;16752;53.364;-1.488;2023-07-22T07:46:13;99488.28;;;20.97;51.30
29879;BME280;16752;53.364;-1.488;2023-07-22T07:48:59;99584.69;;;21.44;51.61
29879;BME280;16752;53.364;-1.488;2023-07-22T07:51:47;99487.47;;;20.17;52.54
29879;BME280;16752;53.364;-1.488;2023-07-22T07:54:31;99556.66;;;21.26;51.25
29879;BME280;16752;53.364;-1.488;2023-07-22T07:57:15;99533.38;;;21.20;50.99
29879;BME280;16752;53.364;-1.488;2023-07-22T07:59:59;99504.25;;;21.55;50.06
29879;BME280;16752;53.364;-1.488;2023-07-22T08:02:43;99471.19;;;20.05;52.78
29879;BME280;16752;53.364;-1.488;2023-07-22T08:05:27;99457.28;;;20.90;50.43
29879;BME280;16752;53.364;-1.488;2023-07-22T08:08:11;99505.69;;;20.42;52.67
29879;BME280;16752;53.364;-1.488;2023-07-22T08:11:04;99585.31;;;21.46;51.44
29879;BME280;16752;53.364;-1.488;2023-07-22T08:13:48;99487.03;;;20.13;52.60
29879;BME280;16752;53.364;-1.488;2023-07-22T08:16:32;99443.50;;;19.99;53.19
29879;BME280;16752;53.364;-1.488;2023-07-22T08:19:16;99541.84;;;20.14;54.19
29879;BME280;16752;53.364;-1.488;2023-07-22T08:22:12;99455.97;;;19.99;53.54
29879;BME280;16752;53.364;-1.488;2023-07-22T08:24:56;99588.16;;;20.42;54.34
29879;BME280;16752;53.364;-1.488;2023-07-22T08:27:44;99497.25;;;20.75;52.09
29879;BME280;16752;53.364;-1.488;2023-07-22T08:30:40;99471.47;;;20.75;51.94
29879;BME280;16752;53.364;-1.488;2023-07-22T08:33:51;99496.63;;;20.73;52.69
29879;BME280;16752;53.364;-1.488;2023-07-22T08:36:55;99457.47;;;20.67;52.06
29879;BME280;16752;53.364;-1.488;2023-07-22T08:42:44;99424.81;;;19.78;53.42
29879;BME280;16752;53.364;-1.488;2023-07-22T08:45:34;99587.53;;;21.06;53.18
29879;BME280;16752;53.364;-1.488;2023-07-22T08:48:39;99581.28;;;21.50;52.17
29879;BME280;16752;53.364;-1.488;2023-07-22T08:51:25;99491.81;;;20.62;53.27
29879;BME280;16752;53.364;-1.488;2023-07-22T08:54:13;99495.75;;;20.51;53.70
29879;BME280;16752;53.364;-1.488;2023-07-22T08:56:57;99550.06;;;21.08;52.66
29879;BME280;16752;53.364;-1.488;2023-07-22T09:00:11;99551.72;;;21.94;51.42
29879;BME280;16752;53.364;-1.488;2023-07-22T09:03:21;99548.47;;;21.71;52.22
29879;BME280;16752;53.364;-1.488;2023-07-22T09:06:08;99516.13;;;21.80;51.29
29879;BME280;16752;53.364;-1.488;2023-07-22T09:08:52;99431.22;;;21.49;50.69
29879;BME280;16752;53.364;-1.488;2023-07-22T09:11:37;99542.44;;;21.90;51.37
29879;BME280;16752;53.364;-1.488;2023-07-22T09:18:23;99429.00;;;21.53;50.74
29879;BME280;16752;53.364;-1.488;2023-07-22T09:24:34;99374.53;;;20.85;51.93
29879;BME280;16752;53.364;-1.488;2023-07-22T09:27:33;99485.00;;;21.59;51.45
29879;BME280;16752;53.364;-1.488;2023-07-22T09:33:25;99405.16;;;20.59;53.11
29879;BME280;16752;53.364;-1.488;2023-07-22T09:36:12;99539.53;;;21.57;52.73
29879;BME280;16752;53.364;-1.488;2023-07-22T09:39:00;99463.03;;;21.29;51.81
29879;BME280;16752;53.364;-1.488;2023-07-22T09:41:53;99543.59;;;21.53;52.77
29879;BME280;16752;53.364;-1.488;2023-07-22T09:44:37;99538.75;;;21.63;51.90
29879;BME280;16752;53.364;-1.488;2023-07-22T09:47:22;99477.22;;;21.37;52.17
29879;BME280;16752;53.364;-1.488;2023-07-22T09:50:16;99456.69;;;20.73;53.60
29879;BME280;16752;53.364;-1.488;2023-07-22T09:53:00;99444.56;;;20.34;54.59
29879;BME280;16752;53.364;-1.488;2023-07-22T09:55:47;99397.66;;;21.05;52.07
29879;BME280;16752;53.364;-1.488;2023-07-22T09:58:34;99427.47;;;21.44;51.76
29879;BME280;16752;53.364;-1.488;2023-07-22T10:01:26;99479.53;;;21.03;53.40
29879;BME280;16752;53.364;-1.488;2023-07-22T10:04:24;99445.28;;;21.43;51.96
29879;BME280;16752;53.364;-1.488;2023-07-22T10:07:54;99529.16;;;21.96;52.49
29879;BME280;16752;53.364;-1.488;2023-07-22T10:11:17;99408.81;;;21.72;51.69
29879;BME280;16752;53.364;-1.488;2023-07-22T10:14:03;99400.59;;;21.39;52.23
29879;BME280;16752;53.364;-1.488;2023-07-22T10:16:50;99518.19;;;21.57;53.49
29879;BME280;16752;53.364;-1.488;2023-07-22T10:19:36;99443.31;;;21.80;52.16
29879;BME280;16752;53.364;-1.488;2023-07-22T10:22:22;99454.41;;;21.27;53.78
29879;BME280;16752;53.364;-1.488;2023-07-22T10:25:06;99510.06;;;22.62;51.73
29879;BME280;16752;53.364;-1.488;2023-07-22T10:28:22;99430.97;;;21.72;52.50
29879;BME280;16752;53.364;-1.488;2023-07-22T10:31:30;99447.28;;;21.62;53.09
29879;BME280;16752;53.364;-1.488;2023-07-22T10:34:21;99492.47;;;22.81;52.16
29879;BME280;16752;53.364;-1.488;2023-07-22T10:37:11;99358.34;;;21.35;53.23
29879;BME280;16752;53.364;-1.488;2023-07-22T10:40:28;99366.44;;;21.90;52.00
29879;BME280;16752;53.364;-1.488;2023-07-22T10:43:16;99418.75;;;20.86;56.03
29879;BME280;16752;53.364;-1.488;2023-07-22T10:46:32;99382.69;;;21.95;52.55
29879;BME280;16752;53.364;-1.488;2023-07-22T10:50:06;99484.00;;;22.64;51.81
29879;BME280;16752;53.364;-1.488;2023-07-22T10:52:52;99354.72;;;21.84;52.94
29879;BME280;16752;53.364;-1.488;2023-07-22T11:01:35;99409.59;;;22.41;52.14
29879;BME280;16752;53.364;-1.488;2023-07-22T11:04:26;99474.91;;;22.52;52.87
29879;BME280;16752;53.364;-1.488;2023-07-22T11:07:44;99469.75;;;23.18;51.29
29879;BME280;16752;53.364;-1.488;2023-07-22T11:10:34;99475.09;;;23.11;50.95
29879;BME280;16752;53.364;-1.488;2023-07-22T11:13:18;99416.50;;;22.83;51.31
29879;BME280;16752;53.364;-1.488;2023-07-22T11:16:02;99456.22;;;23.26;51.18
29879;BME280;16752;53.364;-1.488;2023-07-22T11:18:49;99473.06;;;23.46;50.33
29879;BME280;16752;53.364;-1.488;2023-07-22T11:21:36;99463.59;;;23.17;51.57
29879;BME280;16752;53.364;-1.488;2023-07-22T11:24:26;99415.06;;;22.94;51.84
29879;BME280;16752;53.364;-1.488;2023-07-22T11:27:25;99440.56;;;23.16;51.25
29879;BME280;16752;53.364;-1.488;2023-07-22T11:30:10;99394.59;;;22.40;52.53
29879;BME280;16752;53.364;-1.488;2023-07-22T11:32:58;99419.09;;;22.77;52.34
29879;BME280;16752;53.364;-1.488;2023-07-22T11:35:46;99387.97;;;23.04;51.54
29879;BME280;16752;53.364;-1.488;2023-07-22T11:38:36;99354.69;;;23.00;51.37
29879;BME280;16752;53.364;-1.488;2023-07-22T11:41:30;99403.34;;;23.35;51.32
29879;BME280;16752;53.364;-1.488;2023-07-22T11:44:16;99395.53;;;23.40;51.01
29879;BME280;16752;53.364;-1.488;2023-07-22T11:47:06;99365.53;;;23.18;51.42
29879;BME280;16752;53.364;-1.488;2023-07-22T11:50:16;99365.56;;;23.25;51.16
29879;BME280;16752;53.364;-1.488;2023-07-22T11:56:48;99416.13;;;23.46;51.67
29879;BME280;16752;53.364;-1.488;2023-07-22T11:59:39;99419.19;;;23.16;52.58
29879;BME280;16752;53.364;-1.488;2023-07-22T12:02:26;99413.84;;;23.10;52.46
29879;BME280;16752;53.364;-1.488;2023-07-22T12:05:10;99383.84;;;23.08;52.04
29879;BME280;16752;53.364;-1.488;2023-07-22T12:11:00;99394.94;;;23.44;51.54
29879;BME280;16752;53.364;-1.488;2023-07-22T12:13:45;99337.97;;;22.71;52.71
29879;BME280;16752;53.364;-1.488;2023-07-22T12:23:35;99310.44;;;21.83;52.99
29879;BME280;16752;53.364;-1.488;2023-07-22T12:26:43;99350.09;;;22.74;51.95
29879;BME280;16752;53.364;-1.488;2023-07-22T12:29:48;99334.47;;;22.71;51.29
29879;BME280;16752;53.364;-1.488;2023-07-22T12:32:33;99385.06;;;23.12;51.04
29879;BME280;16752;53.364;-1.488;2023-07-22T12:35:20;99264.75;;;22.00;51.90
29879;BME280;16752;53.364;-1.488;2023-07-22T12:38:07;99345.19;;;23.17;50.61
29879;BME280;16752;53.364;-1.488;2023-07-22T12:44:57;99259.50;;;22.52;50.31
29879;BME280;16752;53.364;-1.488;2023-07-22T12:47:41;99284.59;;;21.90;53.18
29879;BME280;16752;53.364;-1.488;2023-07-22T12:50:43;99320.72;;;22.61;51.83
29879;BME280;16752;53.364;-1.488;2023-07-22T12:53:27;99305.63;;;22.07;52.14
29879;BME280;16752;53.364;-1.488;2023-07-22T12:56:24;99289.91;;;21.77;52.76
29879;BME280;16752;53.364;-1.488;2023-07-22T12:59:14;99325.50;;;21.63;53.59
29879;BME280;16752;53.364;-1.488;2023-07-22T13:02:01;99288.63;;;21.66;52.71
29879;BME280;16752;53.364;-1.488;2023-07-22T13:05:26;99242.09;;;22.56;50.10
29879;BME280;16752;53.364;-1.488;2023-07-22T13:08:37;99351.59;;;22.83;51.44
29879;BME280;16752;53.364;-1.488;2023-07-22T13:11:39;99302.47;;;23.04;50.39
29879;BME280;16752;53.364;-1.488;2023-07-22T13:14:40;99227.91;;;22.36;50.68
29879;BME280;16752;53.364;-1.488;2023-07-22T13:17:27;99304.34;;;23.03;49.75
29879;BME280;16752;53.364;-1.488;2023-07-22T13:20:14;99261.41;;;22.85;49.55
29879;BME280;16752;53.364;-1.488;2023-07-22T13:23:00;99283.94;;;22.76;50.03
29879;BME280;16752;53.364;-1.488;2023-07-22T13:25:44;99253.56;;;23.03;49.24
29879;BME280;16752;53.364;-1.488;2023-07-22T13:28:31;99195.69;;;22.44;50.79
29879;BME280;16752;53.364;-1.488;2023-07-22T13:31:33;99244.47;;;23.31;49.13
29879;BME280;16752;53.364;-1.488;2023-07-22T13:34:17;99315.72;;;23.63;49.52
29879;BME280;16752;53.364;-1.488;2023-07-22T13:37:01;99211.06;;;22.89;50.13
29879;BME280;16752;53.364;-1.488;2023-07-22T13:40:03;99178.81;;;22.50;50.28
29879;BME280;16752;53.364;-1.488;2023-07-22T13:43:02;99186.03;;;22.50;50.14
29879;BME280;16752;53.364;-1.488;2023-07-22T13:46:12;99307.06;;;23.74;49.46
29879;BME280;16752;53.364;-1.488;2023-07-22T13:49:02;99191.75;;;22.67;49.71
29879;BME280;16752;53.364;-1.488;2023-07-22T13:51:46;99174.22;;;23.10;48.64
29879;BME280;16752;53.364;-1.488;2023-07-22T13:54:58;99269.97;;;23.91;48.37
29879;BME280;16752;53.364;-1.488;2023-07-22T13:57:51;99151.91;;;22.78;49.31
29879;BME280;16752;53.364;-1.488;2023-07-22T14:00:41;99251.38;;;23.65;49.01
29879;BME280;16752;53.364;-1.488;2023-07-22T14:03:36;99178.22;;;23.46;47.72
29879;BME280;16752;53.364;-1.488;2023-07-22T14:06:22;99162.78;;;22.70;48.91
29879;BME280;16752;53.364;-1.488;2023-07-22T14:09:07;99204.97;;;23.33;48.66
29879;BME280;16752;53.364;-1.488;2023-07-22T14:11:51;99237.81;;;24.36;47.67
29879;BME280;16752;53.364;-1.488;2023-07-22T14:14:36;99274.13;;;24.19;47.60
29879;BME280;16752;53.364;-1.488;2023-07-22T14:17:20;99210.41;;;23.71;48.28
29879;BME280;16752;53.364;-1.488;2023-07-22T14:20:05;99273.47;;;24.23;47.70
29879;BME280;16752;53.364;-1.488;2023-07-22T14:22:59;99260.97;;;24.17;47.55
29879;BME280;16752;53.364;-1.488;2023-07-22T14:25:47;99190.69;;;23.07;49.37
29879;BME280;16752;53.364;-1.488;2023-07-22T14:28:31;99152.13;;;23.80;47.48
29879;BME280;16752;53.364;-1.488;2023-07-22T14:31:15;99209.94;;;23.81;48.11
29879;BME280;16752;53.364;-1.488;2023-07-22T14:34:09;99248.06;;;24.39;47.46
29879;BME280;16752;53.364;-1.488;2023-07-22T14:36:53;99128.66;;;23.82;47.68
29879;BME280;16752;53.364;-1.488;2023-07-22T14:39:38;99195.28;;;24.46;47.35
29879;BME280;16752;53.364;-1.488;2023-07-22T14:42:51;99219.13;;;24.54;46.81
29879;BME280;16752;53.364;-1.488;2023-07-22T14:45:38;99100.63;;;23.91;46.67
29879;BME280;16752;53.364;-1.488;2023-07-22T14:48:35;99142.13;;;24.25;46.36
29879;BME280;16752;53.364;-1.488;2023-07-22T14:52:10;99103.41;;;22.88;48.75
29879;BME280;16752;53.364;-1.488;2023-07-22T14:55:00;99153.59;;;23.75;47.89
29879;BME280;16752;53.364;-1.488;2023-07-22T14:57:51;99224.94;;;24.69;46.88
29879;BME280;16752;53.364;-1.488;2023-07-22T15:01:03;99144.38;;;23.71;48.35
29879;BME280;16752;53.364;-1.488;2023-07-22T15:04:04;99111.25;;;23.72;48.21
29879;BME280;16752;53.364;-1.488;2023-07-22T15:07:15;99094.22;;;23.67;49.38
29879;BME280;16752;53.364;-1.488;2023-07-22T15:10:23;99214.56;;;23.54;51.88
29879;BME280;16752;53.364;-1.488;2023-07-22T15:13:20;99125.09;;;23.11;51.37
29879;BME280;16752;53.364;-1.488;2023-07-22T15:16:19;99162.16;;;23.91;50.01
29879;BME280;16752;53.364;-1.488;2023-07-22T15:22:34;99121.91;;;24.04;49.19
29879;BME280;16752;53.364;-1.488;2023-07-22T15:25:49;99186.53;;;24.07;49.80
29879;BME280;16752;53.364;-1.488;2023-07-22T15:28:33;99201.03;;;24.50;49.49
29879;BME280;16752;53.364;-1.488;2023-07-22T15:32:00;99196.53;;;25.30;47.88
29879;BME280;16752;53.364;-1.488;2023-07-22T15:34:57;99103.81;;;23.74;48.64
29879;BME280;16752;53.364;-1.488;2023-07-22T15:41:07;99073.75;;;24.04;49.01
29879;BME280;16752;53.364;-1.488;2023-07-22T15:44:00;99064.19;;;24.15;48.65
29879;BME280;16752;53.364;-1.488;2023-07-22T15:46:47;99065.91;;;24.27;47.86
29879;BME280;16752;53.364;-1.488;2023-07-22T15:49:40;99102.88;;;23.62;50.05
29879;BME280;16752;53.364;-1.488;2023-07-22T15:56:09;99043.16;;;23.05;51.28
29879;BME280;16752;53.364;-1.488;2023-07-22T16:02:39;99112.22;;;23.78;50.07
29879;BME280;16752;53.364;-1.488;2023-07-22T16:05:32;99137.81;;;23.67;50.09
29879;BME280;16752;53.364;-1.488;2023-07-22T16:08:27;99102.94;;;24.37;49.19
29879;BME280;16752;53.364;-1.488;2023-07-22T16:11:18;99076.00;;;24.32;48.84
29879;BME280;16752;53.364;-1.488;2023-07-22T16:14:03;99111.66;;;24.69;48.15
29879;BME280;16752;53.364;-1.488;2023-07-22T16:17:08;99002.06;;;24.13;47.89
29879;BME280;16752;53.364;-1.488;2023-07-22T16:19:58;99010.00;;;24.19;48.02
29879;BME280;16752;53.364;-1.488;2023-07-22T16:22:59;99022.63;;;24.55;47.72
29879;BME280;16752;53.364;-1.488;2023-07-22T16:25:43;99010.84;;;23.45;50.38
29879;BME280;16752;53.364;-1.488;2023-07-22T16:28:36;99081.88;;;24.16;49.60
29879;BME280;16752;53.364;-1.488;2023-07-22T16:31:38;99082.63;;;24.29;49.01
29879;BME280;16752;53.364;-1.488;2023-07-22T16:35:01;99132.16;;;25.00;48.55
29879;BME280;16752;53.364;-1.488;2023-07-22T16:37:45;99116.47;;;23.86;50.75
29879;BME280;16752;53.364;-1.488;2023-07-22T16:40:49;99124.00;;;24.88;49.00
29879;BME280;16752;53.364;-1.488;2023-07-22T16:43:34;99030.69;;;23.62;50.12